createdAt,value
2024-03-26T00:00:44.890Z,9.80
2024-03-26T00:01:44.811Z,10.70
2024-03-26T00:02:44.786Z,11.10
2024-03-26T00:03:44.782Z,10.10
2024-03-26T00:04:44.779Z,10.60
2024-03-26T00:05:44.763Z,11.60
2024-03-26T00:06:44.793Z,9.70
2024-03-26T00:07:44.742Z,10.30
2024-03-26T00:08:44.777Z,9.90
2024-03-26T00:09:44.718Z,9.80
2024-03-26T00:10:45.410Z,11.80
2024-03-26T00:11:44.734Z,12.40
2024-03-26T00:12:44.695Z,10.90
2024-03-26T00:13:44.670Z,9.30
2024-03-26T00:14:44.693Z,9.40
2024-03-26T00:15:44.645Z,7.60
2024-03-26T00:16:44.690Z,14.00
2024-03-26T00:17:44.646Z,9.70
2024-03-26T00:18:44.610Z,11.80
2024-03-26T00:19:44.609Z,11.90
2024-03-26T00:20:44.635Z,12.10
2024-03-26T00:21:44.632Z,9.80
2024-03-26T00:22:44.620Z,9.90
2024-03-26T00:23:44.600Z,9.90
2024-03-26T00:24:44.623Z,9.00
2024-03-26T00:25:44.591Z,9.90
2024-03-26T00:26:44.574Z,9.60
2024-03-26T00:27:44.593Z,11.80
2024-03-26T00:28:44.524Z,11.40
2024-03-26T00:29:44.511Z,11.80
2024-03-26T00:30:44.572Z,10.70
2024-03-26T00:31:44.482Z,8.80
2024-03-26T00:32:44.537Z,10.80
2024-03-26T00:33:44.528Z,12.20
2024-03-26T00:34:44.456Z,12.20
2024-03-26T00:35:44.452Z,13.60
2024-03-26T00:36:44.419Z,12.00
2024-03-26T00:37:44.529Z,11.00
2024-03-26T00:38:44.431Z,10.80
2024-03-26T00:39:44.408Z,15.10
2024-03-26T00:40:44.405Z,17.40
2024-03-26T00:41:44.492Z,14.40
2024-03-26T00:42:44.374Z,16.50
2024-03-26T00:43:44.423Z,14.90
2024-03-26T00:44:44.385Z,14.10
2024-03-26T00:45:44.341Z,24.20
2024-03-26T00:46:44.344Z,10.90
2024-03-26T00:47:44.335Z,18.20
2024-03-26T00:48:44.381Z,10.20
2024-03-26T00:49:44.301Z,10.80
2024-03-26T00:50:44.394Z,14.40
2024-03-26T00:51:44.266Z,12.10
2024-03-26T00:52:44.264Z,11.30
2024-03-26T00:53:44.267Z,14.00
2024-03-26T00:54:44.307Z,10.70
2024-03-26T00:55:44.234Z,9.50
2024-03-26T00:56:44.258Z,8.40
2024-03-26T00:57:44.222Z,9.70
2024-03-26T00:58:44.177Z,11.10
2024-03-26T00:59:44.389Z,10.40
2024-03-26T01:00:44.183Z,7.80
2024-03-26T01:01:44.176Z,11.00
2024-03-26T01:02:44.179Z,11.70
2024-03-26T01:03:44.138Z,9.60
2024-03-26T01:04:44.116Z,9.60
2024-03-26T01:05:44.209Z,8.50
2024-03-26T01:06:44.108Z,8.40
2024-03-26T01:07:44.111Z,10.60
2024-03-26T01:08:44.115Z,8.70
2024-03-26T01:09:44.156Z,11.30
2024-03-26T01:10:47.897Z,11.30
2024-03-26T01:11:44.081Z,8.10
2024-03-26T01:12:44.032Z,8.50
2024-03-26T01:13:44.042Z,10.50
2024-03-26T01:14:44.047Z,7.10
2024-03-26T01:15:44.099Z,10.70
2024-03-26T01:16:44.031Z,8.50
2024-03-26T01:17:44.040Z,10.30
2024-03-26T01:18:43.965Z,11.20
2024-03-26T01:19:44.109Z,11.40
2024-03-26T01:20:43.992Z,8.10
2024-03-26T01:21:43.962Z,7.00
2024-03-26T01:22:43.946Z,8.40
2024-03-26T01:23:43.972Z,9.10
2024-03-26T01:24:43.920Z,9.30
2024-03-26T01:25:43.957Z,10.90
2024-03-26T01:26:44.019Z,10.60
2024-03-26T01:27:43.892Z,8.00
2024-03-26T01:28:43.878Z,9.10
2024-03-26T01:29:43.884Z,8.90
2024-03-26T01:30:43.882Z,10.10
2024-03-26T01:31:43.924Z,9.40
2024-03-26T01:32:43.949Z,8.60
2024-03-26T01:33:43.821Z,8.60
2024-03-26T01:34:43.860Z,9.00
2024-03-26T01:35:43.809Z,8.30
2024-03-26T01:36:43.783Z,10.60
2024-03-26T01:37:43.815Z,10.30
2024-03-26T01:38:43.871Z,11.70
2024-03-26T01:39:43.804Z,8.50
2024-03-26T01:40:43.750Z,8.90
2024-03-26T01:41:43.774Z,8.80
2024-03-26T01:42:43.748Z,9.00
2024-03-26T01:43:43.752Z,9.90
2024-03-26T01:44:43.718Z,7.90
2024-03-26T01:45:43.696Z,10.00
2024-03-26T01:46:43.689Z,9.50
2024-03-26T01:47:43.803Z,9.70
2024-03-26T01:48:43.672Z,9.50
2024-03-26T01:49:43.657Z,12.60
2024-03-26T01:50:43.668Z,11.10
2024-03-26T01:51:43.636Z,9.80
2024-03-26T01:52:43.703Z,8.40
2024-03-26T01:53:43.616Z,11.40
2024-03-26T01:54:43.576Z,9.80
2024-03-26T01:55:43.601Z,7.00
2024-03-26T01:56:43.637Z,8.60
2024-03-26T01:57:43.670Z,6.40
2024-03-26T01:58:43.689Z,8.90
2024-03-26T01:59:43.587Z,7.90
2024-03-26T02:00:43.546Z,7.90
2024-03-26T02:01:43.526Z,6.60
2024-03-26T02:02:43.635Z,9.90
2024-03-26T02:03:43.575Z,9.10
2024-03-26T02:04:43.492Z,9.90
2024-03-26T02:05:43.508Z,8.10
2024-03-26T02:06:43.472Z,7.80
2024-03-26T02:07:43.495Z,11.20
2024-03-26T02:08:43.558Z,9.40
2024-03-26T02:09:43.512Z,8.50
2024-03-26T02:10:43.451Z,11.10
2024-03-26T02:11:43.432Z,9.40
2024-03-26T02:12:43.406Z,9.30
2024-03-26T02:13:43.422Z,7.80
2024-03-26T02:14:43.487Z,8.00
2024-03-26T02:15:43.389Z,7.90
2024-03-26T02:16:43.371Z,10.20
2024-03-26T02:17:43.402Z,9.00
2024-03-26T02:18:43.470Z,8.10
2024-03-26T02:19:43.436Z,7.40
2024-03-26T02:20:45.579Z,11.20
2024-03-26T02:21:43.316Z,7.80
2024-03-26T02:22:43.314Z,9.70
2024-03-26T02:23:43.299Z,7.00
2024-03-26T02:24:43.304Z,10.00
2024-03-26T02:25:43.271Z,8.20
2024-03-26T02:26:43.254Z,7.60
2024-03-26T02:27:43.274Z,8.50
2024-03-26T02:28:43.237Z,9.20
2024-03-26T02:29:43.273Z,9.80
2024-03-26T02:30:43.246Z,7.80
2024-03-26T02:31:43.233Z,9.10
2024-03-26T02:32:43.193Z,8.70
2024-03-26T02:33:43.201Z,12.00
2024-03-26T02:34:43.168Z,10.50
2024-03-26T02:35:43.220Z,8.80
2024-03-26T02:36:43.227Z,8.90
2024-03-26T02:37:43.179Z,10.50
2024-03-26T02:38:43.148Z,9.50
2024-03-26T02:39:43.124Z,10.40
2024-03-26T02:40:43.097Z,10.10
2024-03-26T02:41:43.182Z,11.10
2024-03-26T02:42:43.159Z,11.90
2024-03-26T02:43:43.163Z,10.20
2024-03-26T02:44:43.083Z,8.70
2024-03-26T02:45:43.084Z,10.00
2024-03-26T02:46:43.041Z,9.40
2024-03-26T02:47:43.038Z,11.60
2024-03-26T02:48:43.087Z,8.70
2024-03-26T02:49:43.104Z,9.30
2024-03-26T02:50:43.010Z,9.80
2024-03-26T02:51:42.997Z,7.00
2024-03-26T02:52:43.000Z,11.80
2024-03-26T02:53:42.978Z,9.10
2024-03-26T02:54:43.015Z,9.00
2024-03-26T02:55:42.940Z,7.40
2024-03-26T02:56:42.960Z,8.00
2024-03-26T02:57:42.940Z,8.50
2024-03-26T02:58:42.911Z,10.30
2024-03-26T02:59:43.012Z,8.40
2024-03-26T03:00:42.902Z,12.90
2024-03-26T03:01:42.970Z,13.30
2024-03-26T03:02:45.158Z,9.50
2024-03-26T03:03:42.875Z,8.30
2024-03-26T03:04:42.859Z,10.30
2024-03-26T03:05:42.918Z,8.70
2024-03-26T03:06:42.929Z,9.60
2024-03-26T03:07:42.831Z,7.40
2024-03-26T03:08:42.837Z,11.50
2024-03-26T03:09:42.828Z,8.20
2024-03-26T03:10:42.836Z,9.80
2024-03-26T03:11:42.772Z,9.00
2024-03-26T03:12:42.891Z,8.10
2024-03-26T03:13:42.763Z,8.90
2024-03-26T03:14:42.766Z,9.50
2024-03-26T03:15:42.757Z,8.80
2024-03-26T03:16:42.839Z,9.30
2024-03-26T03:17:42.760Z,8.30
2024-03-26T03:18:42.693Z,8.60
2024-03-26T03:19:42.717Z,11.00
2024-03-26T03:20:42.692Z,9.70
2024-03-26T03:21:42.779Z,9.60
2024-03-26T03:22:42.676Z,8.40
2024-03-26T03:23:42.812Z,9.10
2024-03-26T03:24:42.641Z,7.70
2024-03-26T03:25:42.652Z,10.50
2024-03-26T03:26:42.627Z,6.70
2024-03-26T03:27:42.627Z,8.60
2024-03-26T03:28:42.623Z,9.00
2024-03-26T03:29:42.586Z,9.00
2024-03-26T03:30:42.571Z,9.10
2024-03-26T03:31:42.568Z,9.50
2024-03-26T03:32:46.593Z,8.60
2024-03-26T03:33:42.557Z,9.30
2024-03-26T03:34:42.537Z,10.10
2024-03-26T03:35:42.551Z,9.60
2024-03-26T03:36:42.527Z,13.50
2024-03-26T03:37:42.630Z,10.70
2024-03-26T03:38:46.235Z,10.00
2024-03-26T03:39:42.563Z,11.80
2024-03-26T03:40:42.456Z,9.00
2024-03-26T03:41:42.469Z,8.90
2024-03-26T03:42:42.457Z,8.10
2024-03-26T03:43:42.509Z,8.60
2024-03-26T03:44:42.416Z,8.00
2024-03-26T03:45:42.422Z,6.70
2024-03-26T03:46:42.428Z,9.60
2024-03-26T03:47:42.401Z,9.00
2024-03-26T03:48:42.440Z,8.90
2024-03-26T03:49:42.409Z,9.60
2024-03-26T03:50:42.353Z,9.20
2024-03-26T03:51:42.377Z,9.80
2024-03-26T03:52:42.337Z,10.70
2024-03-26T03:53:42.385Z,10.80
2024-03-26T03:54:42.375Z,9.70
2024-03-26T03:55:42.296Z,10.20
2024-03-26T03:56:42.307Z,9.20
2024-03-26T03:57:42.306Z,10.50
2024-03-26T03:58:42.333Z,9.50
2024-03-26T03:59:42.353Z,7.60
2024-03-26T04:00:42.290Z,8.40
2024-03-26T04:01:42.274Z,9.10
2024-03-26T04:02:42.233Z,11.10
2024-03-26T04:03:42.333Z,10.30
2024-03-26T04:04:42.234Z,9.20
2024-03-26T04:05:42.244Z,11.20
2024-03-26T04:06:42.205Z,7.40
2024-03-26T04:07:42.183Z,9.50
2024-03-26T04:08:42.158Z,8.60
2024-03-26T04:09:42.225Z,9.70
2024-03-26T04:10:42.162Z,7.70
2024-03-26T04:11:46.150Z,9.60
2024-03-26T04:12:42.130Z,9.00
2024-03-26T04:13:42.130Z,9.20
2024-03-26T04:14:42.109Z,6.60
2024-03-26T04:15:42.163Z,8.30
2024-03-26T04:16:42.147Z,9.10
2024-03-26T04:17:42.076Z,8.60
2024-03-26T04:18:42.083Z,7.20
2024-03-26T04:19:42.066Z,8.50
2024-03-26T04:20:46.071Z,6.70
2024-03-26T04:21:42.233Z,6.90
2024-03-26T04:22:42.023Z,7.60
2024-03-26T04:23:42.015Z,8.10
2024-03-26T04:24:42.121Z,8.50
2024-03-26T04:25:42.014Z,9.50
2024-03-26T04:26:42.059Z,8.00
2024-03-26T04:27:41.988Z,7.70
2024-03-26T04:28:41.978Z,9.00
2024-03-26T04:29:41.974Z,9.20
2024-03-26T04:30:41.929Z,8.70
2024-03-26T04:31:41.996Z,10.10
2024-03-26T04:32:42.067Z,10.20
2024-03-26T04:33:41.917Z,8.40
2024-03-26T04:34:41.908Z,8.50
2024-03-26T04:35:41.890Z,9.40
2024-03-26T04:36:41.934Z,7.30
2024-03-26T04:37:41.885Z,7.00
2024-03-26T04:38:41.860Z,7.70
2024-03-26T04:39:41.896Z,10.10
2024-03-26T04:40:41.812Z,11.30
2024-03-26T04:41:41.831Z,7.50
2024-03-26T04:42:41.897Z,6.40
2024-03-26T04:43:42.534Z,8.20
2024-03-26T04:44:41.790Z,8.30
2024-03-26T04:45:41.781Z,6.30
2024-03-26T04:46:41.811Z,6.10
2024-03-26T04:47:41.767Z,8.70
2024-03-26T04:48:41.828Z,7.70
2024-03-26T04:49:41.740Z,9.80
2024-03-26T04:50:41.729Z,14.40
2024-03-26T04:51:41.700Z,10.20
2024-03-26T04:52:41.755Z,9.30
2024-03-26T04:53:41.707Z,8.60
2024-03-26T04:54:41.680Z,9.00
2024-03-26T04:55:41.651Z,9.60
2024-03-26T04:56:41.690Z,8.40
2024-03-26T04:57:41.698Z,7.40
2024-03-26T04:58:41.646Z,8.10
2024-03-26T04:59:41.722Z,9.50
2024-03-26T05:00:41.621Z,6.90
2024-03-26T05:01:41.603Z,7.20
2024-03-26T05:02:41.722Z,7.40
2024-03-26T05:03:41.588Z,7.30
2024-03-26T05:04:41.580Z,8.20
2024-03-26T05:05:41.572Z,9.30
2024-03-26T05:06:41.582Z,11.20
2024-03-26T05:07:41.544Z,9.00
2024-03-26T05:08:41.586Z,9.10
2024-03-26T05:09:41.535Z,6.40
2024-03-26T05:10:41.534Z,8.30
2024-03-26T05:11:41.496Z,6.20
2024-03-26T05:12:41.492Z,7.40
2024-03-26T05:13:41.487Z,10.20
2024-03-26T05:14:42.141Z,8.30
2024-03-26T05:15:41.467Z,11.10
2024-03-26T05:16:41.475Z,7.10
2024-03-26T05:17:41.428Z,6.50
2024-03-26T05:18:41.432Z,8.90
2024-03-26T05:19:41.545Z,9.70
2024-03-26T05:20:41.408Z,7.00
2024-03-26T05:21:41.397Z,6.70
2024-03-26T05:22:41.383Z,11.70
2024-03-26T05:23:41.409Z,8.40
2024-03-26T05:24:41.365Z,8.40
2024-03-26T05:25:41.382Z,8.10
2024-03-26T05:26:41.372Z,9.20
2024-03-26T05:27:41.329Z,8.30
2024-03-26T05:28:41.330Z,9.80
2024-03-26T05:29:41.295Z,6.40
2024-03-26T05:30:41.955Z,7.40
2024-03-26T05:31:41.340Z,8.00
2024-03-26T05:32:41.267Z,10.20
2024-03-26T05:33:41.277Z,7.60
2024-03-26T05:34:41.268Z,7.80
2024-03-26T05:35:41.260Z,10.40
2024-03-26T05:36:41.226Z,8.70
2024-03-26T05:37:41.273Z,6.80
2024-03-26T05:38:41.345Z,8.00
2024-03-26T05:39:41.281Z,8.20
2024-03-26T05:40:41.227Z,7.90
2024-03-26T05:41:41.366Z,7.40
2024-03-26T05:42:41.208Z,9.00
2024-03-26T05:43:41.470Z,7.60
2024-03-26T05:44:41.279Z,7.30
2024-03-26T05:45:41.269Z,7.50
2024-03-26T05:46:41.362Z,11.40
2024-03-26T05:47:41.273Z,9.80
2024-03-26T05:48:41.266Z,8.70
2024-03-26T05:49:41.226Z,10.40
2024-03-26T05:50:41.195Z,9.20
2024-03-26T05:51:41.143Z,9.40
2024-03-26T05:52:41.135Z,8.70
2024-03-26T05:53:41.068Z,8.90
2024-03-26T05:54:41.028Z,6.20
2024-03-26T05:55:41.134Z,8.50
2024-03-26T05:56:41.061Z,9.30
2024-03-26T05:57:41.023Z,7.20
2024-03-26T05:58:41.121Z,7.90
2024-03-26T05:59:40.974Z,8.00
2024-03-26T06:00:41.018Z,9.00
2024-03-26T06:01:40.971Z,8.10
2024-03-26T06:02:41.093Z,7.50
2024-03-26T06:03:40.946Z,7.50
2024-03-26T06:04:40.947Z,8.60
2024-03-26T06:05:40.957Z,9.30
2024-03-26T06:06:40.901Z,8.30
2024-03-26T06:07:40.911Z,8.40
2024-03-26T06:08:40.905Z,8.00
2024-03-26T06:09:40.871Z,7.70
2024-03-26T06:10:44.954Z,9.30
2024-03-26T06:11:40.881Z,8.30
2024-03-26T06:12:40.931Z,15.40
2024-03-26T06:13:40.832Z,9.00
2024-03-26T06:14:40.853Z,9.00
2024-03-26T06:15:40.831Z,9.80
2024-03-26T06:16:40.819Z,8.20
2024-03-26T06:17:41.076Z,6.10
2024-03-26T06:18:40.784Z,9.40
2024-03-26T06:19:40.790Z,9.70
2024-03-26T06:20:40.819Z,6.90
2024-03-26T06:21:40.842Z,7.30
2024-03-26T06:22:40.834Z,9.40
2024-03-26T06:23:40.846Z,8.40
2024-03-26T06:24:40.826Z,9.30
2024-03-26T06:25:40.738Z,6.80
2024-03-26T06:26:40.718Z,8.40
2024-03-26T06:27:40.682Z,8.00
2024-03-26T06:28:40.686Z,9.30
2024-03-26T06:29:40.896Z,10.40
2024-03-26T06:30:40.676Z,9.30
2024-03-26T06:31:40.648Z,11.30
2024-03-26T06:32:40.750Z,9.20
2024-03-26T06:33:40.632Z,11.40
2024-03-26T06:34:40.646Z,8.60
2024-03-26T06:35:40.613Z,11.40
2024-03-26T06:36:40.603Z,10.60
2024-03-26T06:37:40.744Z,8.00
2024-03-26T06:38:40.584Z,7.30
2024-03-26T06:39:40.566Z,10.10
2024-03-26T06:40:40.547Z,8.00
2024-03-26T06:41:40.624Z,10.10
2024-03-26T06:42:40.530Z,8.80
2024-03-26T06:43:40.612Z,10.00
2024-03-26T06:44:40.534Z,11.30
2024-03-26T06:45:40.502Z,18.10
2024-03-26T06:46:40.499Z,10.10
2024-03-26T06:47:40.558Z,7.20
2024-03-26T06:48:40.478Z,9.10
2024-03-26T06:49:40.465Z,7.20
2024-03-26T06:50:40.457Z,6.60
2024-03-26T06:51:41.797Z,7.10
2024-03-26T06:52:40.501Z,8.30
2024-03-26T06:53:40.419Z,11.00
2024-03-26T06:54:40.457Z,7.20
2024-03-26T06:55:40.405Z,7.30
2024-03-26T06:56:40.412Z,9.10
2024-03-26T06:57:40.381Z,9.40
2024-03-26T06:58:40.373Z,7.80
2024-03-26T06:59:40.412Z,8.50
2024-03-26T07:00:40.406Z,8.30
2024-03-26T07:01:40.338Z,8.10
2024-03-26T07:02:40.309Z,8.00
2024-03-26T07:03:40.311Z,7.30
2024-03-26T07:04:40.380Z,8.30
2024-03-26T07:05:40.301Z,7.90
2024-03-26T07:06:40.351Z,8.40
2024-03-26T07:07:40.279Z,9.60
2024-03-26T07:08:40.932Z,8.40
2024-03-26T07:09:40.247Z,7.90
2024-03-26T07:10:40.254Z,10.60
2024-03-26T07:11:40.246Z,8.50
2024-03-26T07:12:40.287Z,8.20
2024-03-26T07:13:40.208Z,11.80
2024-03-26T07:14:40.196Z,10.60
2024-03-26T07:15:40.228Z,9.40
2024-03-26T07:16:40.243Z,11.50
2024-03-26T07:17:40.236Z,10.70
2024-03-26T07:18:42.313Z,8.50
2024-03-26T07:19:40.135Z,8.70
2024-03-26T07:20:40.150Z,8.20
2024-03-26T07:21:40.123Z,8.30
2024-03-26T07:22:40.200Z,7.20
2024-03-26T07:23:40.208Z,7.20
2024-03-26T07:24:40.350Z,7.60
2024-03-26T07:25:40.079Z,7.70
2024-03-26T07:26:40.072Z,9.30
2024-03-26T07:27:40.044Z,6.90
2024-03-26T07:28:40.087Z,8.80
2024-03-26T07:29:40.683Z,11.20
2024-03-26T07:30:40.029Z,7.20
2024-03-26T07:31:40.024Z,8.50
2024-03-26T07:32:40.001Z,6.60
2024-03-26T07:33:39.989Z,8.60
2024-03-26T07:34:40.007Z,7.60
2024-03-26T07:35:40.142Z,7.20
2024-03-26T07:36:39.960Z,8.40
2024-03-26T07:37:39.951Z,8.00
2024-03-26T07:38:39.945Z,9.40
2024-03-26T07:39:39.917Z,8.30
2024-03-26T07:40:40.024Z,8.70
2024-03-26T07:41:39.920Z,10.40
2024-03-26T07:42:39.902Z,10.80
2024-03-26T07:43:39.904Z,9.10
2024-03-26T07:44:39.891Z,9.80
2024-03-26T07:45:39.992Z,8.00
2024-03-26T07:46:40.599Z,7.00
2024-03-26T07:47:39.954Z,8.40
2024-03-26T07:48:39.833Z,8.80
2024-03-26T07:49:39.822Z,8.00
2024-03-26T07:50:39.855Z,9.70
2024-03-26T07:51:39.861Z,9.30
2024-03-26T07:52:39.799Z,8.00
2024-03-26T07:53:39.783Z,8.50
2024-03-26T07:54:39.772Z,7.20
2024-03-26T07:55:39.835Z,7.10
2024-03-26T07:56:39.862Z,6.40
2024-03-26T07:57:39.724Z,7.50
2024-03-26T07:58:39.725Z,7.20
2024-03-26T07:59:39.721Z,8.70
2024-03-26T08:00:39.796Z,8.40
2024-03-26T08:01:39.753Z,10.00
2024-03-26T08:02:39.753Z,7.80
2024-03-26T08:03:39.689Z,9.00
2024-03-26T08:04:40.926Z,7.80
2024-03-26T08:05:39.657Z,10.70
2024-03-26T08:06:39.705Z,7.70
2024-03-26T08:07:39.700Z,7.10
2024-03-26T08:08:39.630Z,7.20
2024-03-26T08:09:39.616Z,7.00
2024-03-26T08:10:40.862Z,9.00
2024-03-26T08:11:39.636Z,7.60
2024-03-26T08:12:39.661Z,8.40
2024-03-26T08:13:39.568Z,7.50
2024-03-26T08:14:39.562Z,7.70
2024-03-26T08:15:39.568Z,8.30
2024-03-26T08:16:39.523Z,11.00
2024-03-26T08:17:39.660Z,8.40
2024-03-26T08:18:39.543Z,9.20
2024-03-26T08:19:39.495Z,10.70
2024-03-26T08:20:39.500Z,10.60
2024-03-26T08:21:39.496Z,7.00
2024-03-26T08:22:39.465Z,7.40
2024-03-26T08:23:39.466Z,9.50
2024-03-26T08:24:39.532Z,8.20
2024-03-26T08:25:39.460Z,8.90
2024-03-26T08:26:39.429Z,8.30
2024-03-26T08:27:39.421Z,9.40
2024-03-26T08:28:39.548Z,6.60
2024-03-26T08:29:40.130Z,8.60
2024-03-26T08:30:39.371Z,9.00
2024-03-26T08:31:39.423Z,6.50
2024-03-26T08:32:39.401Z,8.20
2024-03-26T08:33:39.344Z,7.40
2024-03-26T08:34:39.367Z,7.60
2024-03-26T08:35:39.351Z,7.60
2024-03-26T08:36:39.399Z,8.40
2024-03-26T08:37:39.336Z,9.20
2024-03-26T08:38:39.368Z,8.40
2024-03-26T08:39:39.295Z,7.00
2024-03-26T08:40:39.254Z,6.90
2024-03-26T08:41:39.272Z,7.70
2024-03-26T08:42:39.339Z,7.40
2024-03-26T08:43:39.247Z,8.10
2024-03-26T08:44:39.248Z,7.30
2024-03-26T08:45:39.209Z,6.30
2024-03-26T08:46:39.221Z,7.30
2024-03-26T08:47:39.189Z,11.70
2024-03-26T08:48:39.224Z,10.60
2024-03-26T08:49:39.172Z,9.20
2024-03-26T08:50:39.169Z,9.90
2024-03-26T08:51:39.164Z,18.20
2024-03-26T08:52:39.184Z,15.90
2024-03-26T08:53:39.146Z,14.80
2024-03-26T08:54:39.132Z,11.10
2024-03-26T08:55:39.205Z,9.50
2024-03-26T08:56:39.146Z,9.60
2024-03-26T08:57:39.089Z,9.60
2024-03-26T08:58:39.095Z,6.90
2024-03-26T08:59:39.101Z,8.00
2024-03-26T09:00:39.063Z,13.30
2024-03-26T09:01:39.050Z,11.90
2024-03-26T09:02:39.037Z,8.10
2024-03-26T09:03:39.037Z,14.10
2024-03-26T09:04:39.031Z,10.00
2024-03-26T09:05:39.108Z,7.60
2024-03-26T09:06:39.005Z,7.50
2024-03-26T09:07:38.992Z,7.30
2024-03-26T09:08:38.984Z,7.80
2024-03-26T09:09:39.015Z,8.50
2024-03-26T09:10:38.974Z,8.90
2024-03-26T09:11:38.960Z,9.30
2024-03-26T09:12:38.972Z,7.90
2024-03-26T09:13:38.947Z,7.60
2024-03-26T09:14:38.934Z,7.40
2024-03-26T09:15:39.079Z,7.40
2024-03-26T09:16:39.011Z,12.10
2024-03-26T09:17:38.879Z,6.90
2024-03-26T09:18:38.869Z,9.50
2024-03-26T09:19:38.857Z,7.20
2024-03-26T09:20:38.848Z,9.10
2024-03-26T09:21:39.504Z,8.90
2024-03-26T09:22:38.932Z,6.80
2024-03-26T09:23:38.817Z,8.60
2024-03-26T09:24:46.092Z,6.00
2024-03-26T09:25:39.868Z,7.40
2024-03-26T09:26:39.523Z,8.10
2024-03-26T09:27:38.769Z,8.40
2024-03-26T09:28:38.821Z,6.60
2024-03-26T09:29:38.782Z,7.00
2024-03-26T09:30:38.841Z,8.80
2024-03-26T09:31:38.759Z,8.20
2024-03-26T09:32:38.717Z,7.10
2024-03-26T09:33:38.753Z,6.20
2024-03-26T09:34:38.700Z,7.90
2024-03-26T09:35:38.816Z,19.60
2024-03-26T09:36:39.469Z,15.40
2024-03-26T09:37:38.767Z,13.50
2024-03-26T09:38:43.951Z,9.50
2024-03-26T09:39:39.680Z,8.60
2024-03-26T09:40:38.649Z,8.50
2024-03-26T09:41:38.644Z,6.80
2024-03-26T09:42:38.731Z,6.70
2024-03-26T09:43:38.681Z,7.60
2024-03-26T09:44:38.645Z,7.30
2024-03-26T09:45:38.657Z,7.90
2024-03-26T09:46:42.392Z,6.20
2024-03-26T09:47:38.617Z,9.50
2024-03-26T09:48:38.587Z,7.90
2024-03-26T09:49:39.907Z,7.40
2024-03-26T09:50:38.517Z,8.40
2024-03-26T09:51:38.551Z,8.90
2024-03-26T09:52:38.503Z,8.00
2024-03-26T09:53:38.528Z,8.50
2024-03-26T09:54:38.484Z,6.60
2024-03-26T09:55:38.473Z,7.60
2024-03-26T09:56:38.487Z,7.60
2024-03-26T09:57:38.462Z,7.50
2024-03-26T09:58:38.530Z,7.10
2024-03-26T09:59:38.449Z,8.60
2024-03-26T10:00:39.562Z,8.70
2024-03-26T10:01:38.418Z,10.30
2024-03-26T10:02:38.412Z,7.30
2024-03-26T10:03:38.408Z,6.00
2024-03-26T10:04:38.390Z,8.00
2024-03-26T10:05:38.553Z,7.90
2024-03-26T10:06:38.373Z,8.40
2024-03-26T10:07:38.355Z,7.60
2024-03-26T10:08:38.358Z,8.00
2024-03-26T10:09:38.357Z,8.50
2024-03-26T10:10:38.322Z,7.40
2024-03-26T10:11:41.559Z,8.00
2024-03-26T10:12:38.296Z,9.10
2024-03-26T10:13:38.353Z,7.90
2024-03-26T10:14:38.326Z,6.40
2024-03-26T10:15:38.325Z,6.40
2024-03-26T10:16:38.260Z,9.10
2024-03-26T10:17:38.306Z,7.10
2024-03-26T10:18:38.226Z,7.90
2024-03-26T10:19:38.296Z,8.30
2024-03-26T10:20:38.243Z,6.80
2024-03-26T10:21:38.272Z,6.90
2024-03-26T10:22:38.195Z,7.90
2024-03-26T10:23:38.195Z,7.60
2024-03-26T10:24:38.175Z,11.00
2024-03-26T10:25:38.229Z,8.00
2024-03-26T10:26:38.161Z,9.30
2024-03-26T10:27:38.151Z,10.10
2024-03-26T10:28:38.157Z,11.60
2024-03-26T10:29:38.136Z,10.80
2024-03-26T10:30:38.096Z,16.40
2024-03-26T10:31:38.157Z,11.70
2024-03-26T10:32:38.169Z,11.00
2024-03-26T10:33:38.069Z,10.80
2024-03-26T10:34:38.078Z,10.30
2024-03-26T10:35:38.070Z,8.70
2024-03-26T10:36:38.044Z,11.90
2024-03-26T10:37:38.128Z,8.60
2024-03-26T10:38:38.818Z,9.50
2024-03-26T10:39:38.020Z,8.40
2024-03-26T10:40:38.044Z,8.70
2024-03-26T10:41:38.079Z,9.10
2024-03-26T10:42:37.991Z,8.30
2024-03-26T10:43:38.636Z,6.40
2024-03-26T10:44:37.940Z,5.20
2024-03-26T10:45:49.267Z,7.00
2024-03-26T10:46:38.954Z,8.20
2024-03-26T10:47:37.975Z,9.10
2024-03-26T10:48:47.278Z,7.30
2024-03-26T10:49:38.990Z,5.40
2024-03-26T10:50:37.937Z,6.50
2024-03-26T10:51:37.909Z,5.60
2024-03-26T10:52:37.939Z,4.10
2024-03-26T10:53:37.935Z,5.90
2024-03-26T10:54:41.756Z,4.20
2024-03-26T10:55:37.901Z,5.50
2024-03-26T10:56:37.826Z,5.70
2024-03-26T10:57:37.858Z,4.10
2024-03-26T10:58:37.817Z,3.10
2024-03-26T10:59:38.448Z,3.20
2024-03-26T11:00:37.774Z,4.20
2024-03-26T11:01:37.847Z,5.20
2024-03-26T11:02:37.814Z,5.70
2024-03-26T11:03:37.765Z,3.70
2024-03-26T11:04:38.065Z,5.30
2024-03-26T11:05:37.739Z,4.80
2024-03-26T11:06:37.746Z,3.80
2024-03-26T11:07:37.720Z,5.30
2024-03-26T11:08:37.723Z,5.50
2024-03-26T11:09:37.701Z,6.60
2024-03-26T11:10:38.343Z,5.20
2024-03-26T11:11:37.692Z,6.20
2024-03-26T11:12:37.711Z,6.80
2024-03-26T11:13:37.669Z,5.90
2024-03-26T11:14:37.632Z,3.60
2024-03-26T11:15:37.665Z,5.40
2024-03-26T11:16:37.597Z,7.00
2024-03-26T11:17:37.680Z,4.80
2024-03-26T11:18:37.606Z,5.10
2024-03-26T11:19:37.582Z,6.60
2024-03-26T11:20:37.597Z,4.30
2024-03-26T11:21:37.626Z,4.50
2024-03-26T11:22:37.581Z,5.10
2024-03-26T11:23:37.546Z,6.50
2024-03-26T11:24:37.529Z,5.30
2024-03-26T11:25:37.558Z,5.40
2024-03-26T11:26:37.574Z,5.50
2024-03-26T11:27:37.537Z,4.90
2024-03-26T11:28:37.474Z,6.00
2024-03-26T11:29:37.478Z,4.30
2024-03-26T11:30:37.562Z,5.80
2024-03-26T11:31:37.500Z,5.90
2024-03-26T11:32:37.467Z,7.10
2024-03-26T11:33:37.417Z,6.10
2024-03-26T11:34:37.403Z,6.60
2024-03-26T11:35:41.420Z,5.40
2024-03-26T11:36:37.393Z,6.00
2024-03-26T11:37:37.390Z,6.10
2024-03-26T11:38:37.371Z,6.20
2024-03-26T11:39:37.388Z,5.50
2024-03-26T11:40:37.364Z,3.30
2024-03-26T11:41:38.039Z,4.30
2024-03-26T11:42:37.323Z,3.50
2024-03-26T11:43:37.336Z,5.00
2024-03-26T11:44:37.334Z,4.20
2024-03-26T11:45:37.293Z,3.90
2024-03-26T11:46:37.276Z,5.60
2024-03-26T11:47:37.627Z,4.80
2024-03-26T11:48:37.316Z,3.80
2024-03-26T11:49:37.277Z,5.90
2024-03-26T11:50:38.007Z,5.90
2024-03-26T11:51:39.065Z,4.20
2024-03-26T11:52:37.301Z,5.10
2024-03-26T11:53:37.246Z,5.60
2024-03-26T11:54:37.203Z,3.60
2024-03-26T11:55:37.182Z,3.10
2024-03-26T11:56:37.196Z,4.30
2024-03-26T11:57:37.716Z,4.10
2024-03-26T11:58:37.195Z,5.10
2024-03-26T11:59:37.179Z,4.10
2024-03-26T12:00:37.167Z,4.70
2024-03-26T12:01:37.124Z,5.30
2024-03-26T12:02:37.124Z,5.70
2024-03-26T12:03:37.181Z,3.30
2024-03-26T12:04:37.099Z,5.20
2024-03-26T12:05:37.067Z,2.80
2024-03-26T12:06:37.090Z,6.00
2024-03-26T12:07:37.093Z,3.60
2024-03-26T12:08:37.071Z,3.60
2024-03-26T12:09:37.025Z,3.20
2024-03-26T12:10:37.023Z,4.90
2024-03-26T12:11:37.010Z,4.90
2024-03-26T12:12:37.140Z,6.00
2024-03-26T12:13:37.095Z,4.80
2024-03-26T12:14:36.962Z,4.10
2024-03-26T12:15:36.986Z,4.40
2024-03-26T12:16:36.974Z,4.50
2024-03-26T12:17:36.996Z,5.60
2024-03-26T12:18:36.990Z,5.50
2024-03-26T12:19:36.957Z,3.90
2024-03-26T12:20:36.930Z,4.60
2024-03-26T12:21:36.906Z,3.80
2024-03-26T12:22:36.891Z,4.80
2024-03-26T12:23:36.890Z,4.10
2024-03-26T12:24:36.946Z,3.90
2024-03-26T12:25:36.872Z,4.30
2024-03-26T12:26:36.855Z,4.80
2024-03-26T12:27:36.846Z,5.10
2024-03-26T12:28:36.824Z,4.20
2024-03-26T12:29:36.853Z,3.70
2024-03-26T12:30:36.806Z,4.70
2024-03-26T12:31:36.787Z,4.10
2024-03-26T12:32:36.787Z,4.40
2024-03-26T12:33:36.851Z,4.60
2024-03-26T12:34:36.771Z,3.80
2024-03-26T12:35:36.780Z,4.00
2024-03-26T12:36:36.757Z,5.80
2024-03-26T12:37:36.719Z,5.10
2024-03-26T12:38:36.714Z,3.00
2024-03-26T12:39:36.721Z,4.50
2024-03-26T12:40:36.794Z,4.90
2024-03-26T12:41:36.696Z,4.90
2024-03-26T12:42:36.685Z,5.60
2024-03-26T12:43:36.668Z,2.90
2024-03-26T12:44:36.962Z,5.10
2024-03-26T12:45:36.642Z,5.60
2024-03-26T12:46:36.635Z,4.50
2024-03-26T12:47:36.648Z,5.50
2024-03-26T12:48:36.615Z,5.70
2024-03-26T12:49:36.602Z,5.30
2024-03-26T12:50:36.586Z,5.60
2024-03-26T12:51:36.575Z,3.90
2024-03-26T12:52:36.619Z,4.90
2024-03-26T12:53:36.561Z,4.40
2024-03-26T12:54:36.575Z,4.20
2024-03-26T12:55:36.554Z,6.40
2024-03-26T12:56:36.597Z,5.20
2024-03-26T12:57:36.523Z,5.20
2024-03-26T12:58:36.490Z,6.30
2024-03-26T12:59:36.565Z,4.40
2024-03-26T13:00:36.486Z,6.40
2024-03-26T13:01:36.486Z,4.30
2024-03-26T13:02:36.476Z,4.50
2024-03-26T13:03:36.530Z,5.90
2024-03-26T13:04:36.447Z,5.80
2024-03-26T13:05:36.440Z,4.40
2024-03-26T13:06:36.415Z,5.10
2024-03-26T13:07:36.409Z,4.80
2024-03-26T13:08:36.412Z,5.90
2024-03-26T13:09:36.463Z,4.70
2024-03-26T13:10:36.376Z,5.90
2024-03-26T13:11:38.202Z,5.50
2024-03-26T13:12:36.346Z,4.50
2024-03-26T13:13:36.336Z,3.60